Aérodrome :







RETROUVEZ-NOUS SUR...

 
LOGIN :

S'inscrire | Disclaimer

   EN    FR    IT 

 









Légende :    VFR   VFR Marginal   IFR   IFR Intensif   IFR Très Intensif
Visi : 
Plafond : 
>= 8 km
>= 3000ft
5 à 8 km
1000 à 3000 ft
1500m à 5 km
500 à 1000 ft
800 à 1500m
200 à 500 ft
< 800m
< 200 ft
Symboles :   Orages  Brouillard  Fortes neiges  Fortes précipitations  Vent > 20 kt






- Altitude de l'aérodrome : 1166 ft


KMPV - Edward F Knapp State

DERNIER METAR :
  • 231151Z AUTO 00000KT 10SM OVC060 09/09 A2985 RMK AO2 SLP112 60024 70069 T00940094 10100 20094 51002

METARs EXPIRÉS :
  • 231111Z AUTO 00000KT 3SM BR FEW036 OVC048 09/09 A2984 RMK AO2 T00940094
  • 231058Z AUTO 00000KT 1SM BR FEW016 SCT035 OVC045 09/09 A2985 RMK AO2 T00940094
  • 231054Z AUTO 00000KT 1 3/4SM BR FEW016 SCT029 OVC045 09/09 A2984 RMK AO2 T00940094
  • 231019Z AUTO 00000KT 10SM FEW030 OVC038 10/09 A2985 RMK AO2 RAE14 P0002 T01000094
  • 230959Z AUTO 00000KT 4SM RA BR FEW004 BKN020 OVC030 09/09 A2986 RMK AO2 P0002 T00940094
  • 230951Z AUTO VRB03KT 2 1/2SM -RA BR FEW005 SCT010 OVC018 09/09 A2986 RMK AO2 RAB0854 SLP114 P0008 T00940094
  • 230943Z AUTO 32006KT 1 3/4SM RA BR BKN022 OVC030 09/09 A2985 RMK AO2 VIS 1V5 RAB0854 P0007 T00940094

TAF KMPV
Valide du 23 à 12h jusqu'au 24 à 12h UTC


231135Z 2312/2412 00000KT P6SM OVC040
TEMPO 2312/2313 1SM BR
FM231300 VRB04KT P6SM BKN035
FM231900 30010KT P6SM FEW060
FM232200 27008KT P6SM SCT080
FM240200 24008KT P6SM SCT100
FM240900 VRB03KT P6SM SKC



MET'MAP, la Météo Aéronautique d'un coup d'oeil ! - Copyright ORBIFLY Décembre 2007 - Disclaimer

ORBIFLY MET'MAP TEAM :

Programmation & Développement : Alexandra Zaïnal
Conception & Développement : Baudouin d'Aumeries
Co-Programmation & Développement : Marc-Olivier Méhu
Soutien technique & logistique : Manuel Goepfert

Contact : metmap@orbifly.com




SOURCES & CREDITS :

   NOAA